sensor_id;sensor_type;location;lat;lon;timestamp;temperature;humidity
2465;DHT22;1244;54.326;10.074;2024-03-02T00:00:16;8.60;99.90
2465;DHT22;1244;54.326;10.074;2024-03-02T00:02:45;8.50;99.90
2465;DHT22;1244;54.326;10.074;2024-03-02T00:05:12;8.50;99.90
2465;DHT22;1244;54.326;10.074;2024-03-02T00:07:41;8.50;99.90
2465;DHT22;1244;54.326;10.074;2024-03-02T00:10:11;8.50;99.90
2465;DHT22;1244;54.326;10.074;2024-03-02T00:12:41;8.50;99.90
2465;DHT22;1244;54.326;10.074;2024-03-02T00:15:17;8.50;99.90
2465;DHT22;1244;54.326;10.074;2024-03-02T00:17:53;8.50;99.90
2465;DHT22;1244;54.326;10.074;2024-03-02T00:20:20;8.50;99.90
2465;DHT22;1244;54.326;10.074;2024-03-02T00:22:46;8.60;99.90
2465;DHT22;1244;54.326;10.074;2024-03-02T00:25:12;8.50;99.90
2465;DHT22;1244;54.326;10.074;2024-03-02T00:27:37;8.50;99.90
2465;DHT22;1244;54.326;10.074;2024-03-02T00:30:43;8.50;99.90
2465;DHT22;1244;54.326;10.074;2024-03-02T00:33:02;8.50;99.90
2465;DHT22;1244;54.326;10.074;2024-03-02T00:35:27;8.50;99.90
2465;DHT22;1244;54.326;10.074;2024-03-02T00:37:53;8.40;99.90
2465;DHT22;1244;54.326;10.074;2024-03-02T00:40:19;8.50;99.90
2465;DHT22;1244;54.326;10.074;2024-03-02T00:42:45;8.40;99.90
2465;DHT22;1244;54.326;10.074;2024-03-02T00:45:10;8.40;99.90
2465;DHT22;1244;54.326;10.074;2024-03-02T00:47:38;8.40;99.90
2465;DHT22;1244;54.326;10.074;2024-03-02T00:50:05;8.40;99.90
2465;DHT22;1244;54.326;10.074;2024-03-02T00:52:30;8.40;99.90
2465;DHT22;1244;54.326;10.074;2024-03-02T00:54:58;8.40;99.90
2465;DHT22;1244;54.326;10.074;2024-03-02T00:57:24;8.40;99.90
2465;DHT22;1244;54.326;10.074;2024-03-02T00:59:51;8.40;99.90
2465;DHT22;1244;54.326;10.074;2024-03-02T01:02:17;8.30;99.90
2465;DHT22;1244;54.326;10.074;2024-03-02T01:04:45;8.30;99.90
2465;DHT22;1244;54.326;10.074;2024-03-02T01:07:11;8.30;99.90
2465;DHT22;1244;54.326;10.074;2024-03-02T01:09:36;8.30;99.90
2465;DHT22;1244;54.326;10.074;2024-03-02T01:12:01;8.30;99.90
2465;DHT22;1244;54.326;10.074;2024-03-02T01:14:27;8.30;99.90
2465;DHT22;1244;54.326;10.074;2024-03-02T01:16:53;8.20;99.90
2465;DHT22;1244;54.326;10.074;2024-03-02T01:19:19;8.20;99.90
2465;DHT22;1244;54.326;10.074;2024-03-02T01:21:44;8.20;99.90
2465;DHT22;1244;54.326;10.074;2024-03-02T01:24:10;8.20;99.90
2465;DHT22;1244;54.326;10.074;2024-03-02T01:26:35;8.20;99.90
2465;DHT22;1244;54.326;10.074;2024-03-02T01:29:00;8.20;99.90
2465;DHT22;1244;54.326;10.074;2024-03-02T01:31:26;8.20;99.90
2465;DHT22;1244;54.326;10.074;2024-03-02T01:33:52;8.20;99.90
2465;DHT22;1244;54.326;10.074;2024-03-02T01:36:17;8.20;99.90
2465;DHT22;1244;54.326;10.074;2024-03-02T01:38:42;8.20;99.90
2465;DHT22;1244;54.326;10.074;2024-03-02T01:41:08;8.10;99.90
2465;DHT22;1244;54.326;10.074;2024-03-02T01:43:34;8.00;99.90
2465;DHT22;1244;54.326;10.074;2024-03-02T01:45:59;8.10;99.90
2465;DHT22;1244;54.326;10.074;2024-03-02T01:48:25;8.10;99.90
2465;DHT22;1244;54.326;10.074;2024-03-02T01:50:50;8.10;99.90
2465;DHT22;1244;54.326;10.074;2024-03-02T01:53:16;8.10;99.90
2465;DHT22;1244;54.326;10.074;2024-03-02T01:55:41;8.10;99.90
2465;DHT22;1244;54.326;10.074;2024-03-02T01:58:07;8.10;99.90
2465;DHT22;1244;54.326;10.074;2024-03-02T02:00:32;8.10;99.90
2465;DHT22;1244;54.326;10.074;2024-03-02T02:02:58;8.10;99.90
2465;DHT22;1244;54.326;10.074;2024-03-02T02:05:24;8.00;99.90
2465;DHT22;1244;54.326;10.074;2024-03-02T02:07:49;8.00;99.90
2465;DHT22;1244;54.326;10.074;2024-03-02T02:10:15;7.90;99.90
2465;DHT22;1244;54.326;10.074;2024-03-02T02:12:41;7.90;99.90
2465;DHT22;1244;54.326;10.074;2024-03-02T02:15:26;8.00;99.90
2465;DHT22;1244;54.326;10.074;2024-03-02T02:17:52;8.00;99.90
2465;DHT22;1244;54.326;10.074;2024-03-02T02:20:18;7.90;99.90
2465;DHT22;1244;54.326;10.074;2024-03-02T02:23:01;7.90;99.90
2465;DHT22;1244;54.326;10.074;2024-03-02T02:25:27;7.80;99.90
2465;DHT22;1244;54.326;10.074;2024-03-02T02:27:53;7.80;99.90
2465;DHT22;1244;54.326;10.074;2024-03-02T02:30:20;7.80;99.90
2465;DHT22;1244;54.326;10.074;2024-03-02T02:32:46;7.80;99.90
2465;DHT22;1244;54.326;10.074;2024-03-02T02:35:11;7.80;99.90
2465;DHT22;1244;54.326;10.074;2024-03-02T02:37:38;7.80;99.90
2465;DHT22;1244;54.326;10.074;2024-03-02T02:40:04;7.80;99.90
2465;DHT22;1244;54.326;10.074;2024-03-02T02:42:30;7.80;99.90
2465;DHT22;1244;54.326;10.074;2024-03-02T02:44:55;7.80;99.90
2465;DHT22;1244;54.326;10.074;2024-03-02T02:47:21;7.70;99.90
2465;DHT22;1244;54.326;10.074;2024-03-02T02:49:46;7.80;99.90
2465;DHT22;1244;54.326;10.074;2024-03-02T02:52:12;7.70;99.90
2465;DHT22;1244;54.326;10.074;2024-03-02T02:54:38;7.70;99.90
2465;DHT22;1244;54.326;10.074;2024-03-02T02:57:03;7.70;99.90
2465;DHT22;1244;54.326;10.074;2024-03-02T02:59:29;7.70;99.90
2465;DHT22;1244;54.326;10.074;2024-03-02T03:01:54;7.60;99.90
2465;DHT22;1244;54.326;10.074;2024-03-02T03:04:19;7.60;99.90
2465;DHT22;1244;54.326;10.074;2024-03-02T03:06:45;7.50;99.90
2465;DHT22;1244;54.326;10.074;2024-03-02T03:09:11;7.50;99.90
2465;DHT22;1244;54.326;10.074;2024-03-02T03:11:37;7.60;99.90
2465;DHT22;1244;54.326;10.074;2024-03-02T03:14:02;7.60;99.90
2465;DHT22;1244;54.326;10.074;2024-03-02T03:16:28;7.50;99.90
2465;DHT22;1244;54.326;10.074;2024-03-02T03:18:53;7.50;99.90
2465;DHT22;1244;54.326;10.074;2024-03-02T03:21:19;7.40;99.90
2465;DHT22;1244;54.326;10.074;2024-03-02T03:23:44;7.50;99.90
2465;DHT22;1244;54.326;10.074;2024-03-02T03:26:10;7.50;99.90
2465;DHT22;1244;54.326;10.074;2024-03-02T03:28:36;7.50;99.90
2465;DHT22;1244;54.326;10.074;2024-03-02T03:31:01;7.50;99.90
2465;DHT22;1244;54.326;10.074;2024-03-02T03:33:27;7.50;99.90
2465;DHT22;1244;54.326;10.074;2024-03-02T03:35:53;7.40;99.90
2465;DHT22;1244;54.326;10.074;2024-03-02T03:38:19;7.50;99.90
2465;DHT22;1244;54.326;10.074;2024-03-02T03:40:44;7.50;99.90
2465;DHT22;1244;54.326;10.074;2024-03-02T03:43:10;7.40;99.90
2465;DHT22;1244;54.326;10.074;2024-03-02T03:45:36;7.40;99.90
2465;DHT22;1244;54.326;10.074;2024-03-02T03:48:02;7.50;99.90
2465;DHT22;1244;54.326;10.074;2024-03-02T03:50:28;7.50;99.90
2465;DHT22;1244;54.326;10.074;2024-03-02T03:52:53;7.60;99.90
2465;DHT22;1244;54.326;10.074;2024-03-02T03:55:19;7.50;99.90
2465;DHT22;1244;54.326;10.074;2024-03-02T03:57:44;7.40;99.90
2465;DHT22;1244;54.326;10.074;2024-03-02T04:00:10;7.50;99.90
2465;DHT22;1244;54.326;10.074;2024-03-02T04:02:37;7.50;99.90
2465;DHT22;1244;54.326;10.074;2024-03-02T04:05:03;7.60;99.90
2465;DHT22;1244;54.326;10.074;2024-03-02T04:07:35;7.50;99.90
2465;DHT22;1244;54.326;10.074;2024-03-02T04:10:09;7.50;99.90
2465;DHT22;1244;54.326;10.074;2024-03-02T04:12:35;7.50;99.90
2465;DHT22;1244;54.326;10.074;2024-03-02T04:15:05;7.50;99.90
2465;DHT22;1244;54.326;10.074;2024-03-02T04:17:32;7.50;99.90
2465;DHT22;1244;54.326;10.074;2024-03-02T04:19:59;7.50;99.90
2465;DHT22;1244;54.326;10.074;2024-03-02T04:22:25;7.50;99.90
2465;DHT22;1244;54.326;10.074;2024-03-02T04:24:51;7.40;99.90
2465;DHT22;1244;54.326;10.074;2024-03-02T04:27:16;7.50;99.90
2465;DHT22;1244;54.326;10.074;2024-03-02T04:29:42;7.50;99.90
2465;DHT22;1244;54.326;10.074;2024-03-02T04:32:07;7.40;99.90
2465;DHT22;1244;54.326;10.074;2024-03-02T04:34:33;7.40;99.90
2465;DHT22;1244;54.326;10.074;2024-03-02T04:36:58;7.40;99.90
2465;DHT22;1244;54.326;10.074;2024-03-02T04:39:24;7.40;99.90
2465;DHT22;1244;54.326;10.074;2024-03-02T04:41:50;7.40;99.90
2465;DHT22;1244;54.326;10.074;2024-03-02T04:44:15;7.40;99.90
2465;DHT22;1244;54.326;10.074;2024-03-02T04:46:41;7.40;99.90
2465;DHT22;1244;54.326;10.074;2024-03-02T04:49:06;7.30;99.90
2465;DHT22;1244;54.326;10.074;2024-03-02T04:51:32;7.30;99.90
2465;DHT22;1244;54.326;10.074;2024-03-02T04:53:57;7.30;99.90
2465;DHT22;1244;54.326;10.074;2024-03-02T04:56:23;7.30;99.90
2465;DHT22;1244;54.326;10.074;2024-03-02T04:58:57;7.30;99.90
2465;DHT22;1244;54.326;10.074;2024-03-02T05:01:23;7.10;99.90
2465;DHT22;1244;54.326;10.074;2024-03-02T05:03:48;7.10;99.90
2465;DHT22;1244;54.326;10.074;2024-03-02T05:06:14;7.10;99.90
2465;DHT22;1244;54.326;10.074;2024-03-02T05:08:39;7.10;99.90
2465;DHT22;1244;54.326;10.074;2024-03-02T05:11:05;7.10;99.90
2465;DHT22;1244;54.326;10.074;2024-03-02T05:13:48;7.10;99.90
2465;DHT22;1244;54.326;10.074;2024-03-02T05:16:14;7.10;99.90
2465;DHT22;1244;54.326;10.074;2024-03-02T05:18:39;7.10;99.90
2465;DHT22;1244;54.326;10.074;2024-03-02T05:21:05;7.20;99.90
2465;DHT22;1244;54.326;10.074;2024-03-02T05:23:31;7.20;99.90
2465;DHT22;1244;54.326;10.074;2024-03-02T05:25:56;7.10;99.90
2465;DHT22;1244;54.326;10.074;2024-03-02T05:28:22;7.10;99.90
2465;DHT22;1244;54.326;10.074;2024-03-02T05:30:47;7.20;99.90
2465;DHT22;1244;54.326;10.074;2024-03-02T05:33:13;7.10;99.90
2465;DHT22;1244;54.326;10.074;2024-03-02T05:35:38;7.10;99.90
2465;DHT22;1244;54.326;10.074;2024-03-02T05:38:04;7.20;99.90
2465;DHT22;1244;54.326;10.074;2024-03-02T05:40:29;7.30;99.90
2465;DHT22;1244;54.326;10.074;2024-03-02T05:42:55;7.20;99.90
2465;DHT22;1244;54.326;10.074;2024-03-02T05:45:20;7.20;99.90
2465;DHT22;1244;54.326;10.074;2024-03-02T05:47:46;7.20;99.90
2465;DHT22;1244;54.326;10.074;2024-03-02T05:50:11;7.20;99.90
2465;DHT22;1244;54.326;10.074;2024-03-02T05:52:37;7.10;99.90
2465;DHT22;1244;54.326;10.074;2024-03-02T05:55:02;7.10;99.90
2465;DHT22;1244;54.326;10.074;2024-03-02T05:57:28;7.10;99.90
2465;DHT22;1244;54.326;10.074;2024-03-02T06:00:09;7.20;99.90
2465;DHT22;1244;54.326;10.074;2024-03-02T06:02:34;7.20;99.90
2465;DHT22;1244;54.326;10.074;2024-03-02T06:05:03;7.20;99.90
2465;DHT22;1244;54.326;10.074;2024-03-02T06:07:29;7.20;99.90
2465;DHT22;1244;54.326;10.074;2024-03-02T06:09:55;7.10;99.90
2465;DHT22;1244;54.326;10.074;2024-03-02T06:12:20;7.20;99.90
2465;DHT22;1244;54.326;10.074;2024-03-02T06:14:46;7.20;99.90
2465;DHT22;1244;54.326;10.074;2024-03-02T06:17:11;7.10;99.90
2465;DHT22;1244;54.326;10.074;2024-03-02T06:19:37;7.10;99.90
2465;DHT22;1244;54.326;10.074;2024-03-02T06:22:02;7.10;99.90
2465;DHT22;1244;54.326;10.074;2024-03-02T06:24:29;7.20;99.90
2465;DHT22;1244;54.326;10.074;2024-03-02T06:26:54;7.20;99.90
2465;DHT22;1244;54.326;10.074;2024-03-02T06:29:20;7.20;99.90
2465;DHT22;1244;54.326;10.074;2024-03-02T06:31:45;7.20;99.90
2465;DHT22;1244;54.326;10.074;2024-03-02T06:34:11;7.20;99.90
2465;DHT22;1244;54.326;10.074;2024-03-02T06:36:36;7.20;99.90
2465;DHT22;1244;54.326;10.074;2024-03-02T06:39:03;7.20;99.90
2465;DHT22;1244;54.326;10.074;2024-03-02T06:41:29;7.20;99.90
2465;DHT22;1244;54.326;10.074;2024-03-02T06:43:54;7.20;99.90
2465;DHT22;1244;54.326;10.074;2024-03-02T06:46:25;7.30;99.90
2465;DHT22;1244;54.326;10.074;2024-03-02T06:48:50;7.30;99.90
2465;DHT22;1244;54.326;10.074;2024-03-02T06:51:16;7.30;99.90
2465;DHT22;1244;54.326;10.074;2024-03-02T06:53:41;7.40;99.90
2465;DHT22;1244;54.326;10.074;2024-03-02T06:56:07;7.40;99.90
2465;DHT22;1244;54.326;10.074;2024-03-02T06:58:34;7.50;99.90
2465;DHT22;1244;54.326;10.074;2024-03-02T07:01:00;7.50;99.90
2465;DHT22;1244;54.326;10.074;2024-03-02T07:03:28;7.50;99.90
2465;DHT22;1244;54.326;10.074;2024-03-02T07:05:54;7.50;99.90
2465;DHT22;1244;54.326;10.074;2024-03-02T07:08:19;7.50;99.90
2465;DHT22;1244;54.326;10.074;2024-03-02T07:10:44;7.50;99.90
2465;DHT22;1244;54.326;10.074;2024-03-02T07:13:10;7.60;99.90
2465;DHT22;1244;54.326;10.074;2024-03-02T07:15:35;7.60;99.90
2465;DHT22;1244;54.326;10.074;2024-03-02T07:18:19;7.60;99.90
2465;DHT22;1244;54.326;10.074;2024-03-02T07:20:48;7.60;99.90
2465;DHT22;1244;54.326;10.074;2024-03-02T07:23:16;7.70;99.90
2465;DHT22;1244;54.326;10.074;2024-03-02T07:25:41;7.70;99.90
2465;DHT22;1244;54.326;10.074;2024-03-02T07:28:07;7.70;99.90
2465;DHT22;1244;54.326;10.074;2024-03-02T07:30:33;7.80;99.90
2465;DHT22;1244;54.326;10.074;2024-03-02T07:32:59;7.80;99.90
2465;DHT22;1244;54.326;10.074;2024-03-02T07:35:24;7.80;99.90
2465;DHT22;1244;54.326;10.074;2024-03-02T07:37:53;7.80;99.90
2465;DHT22;1244;54.326;10.074;2024-03-02T07:40:19;7.80;99.90
2465;DHT22;1244;54.326;10.074;2024-03-02T07:42:45;7.90;99.90
2465;DHT22;1244;54.326;10.074;2024-03-02T07:45:11;7.90;99.90
2465;DHT22;1244;54.326;10.074;2024-03-02T07:47:36;7.90;99.90
2465;DHT22;1244;54.326;10.074;2024-03-02T07:50:02;8.00;99.90
2465;DHT22;1244;54.326;10.074;2024-03-02T07:52:29;8.00;99.90
2465;DHT22;1244;54.326;10.074;2024-03-02T07:54:55;8.00;99.90
2465;DHT22;1244;54.326;10.074;2024-03-02T07:57:21;8.00;99.90
2465;DHT22;1244;54.326;10.074;2024-03-02T07:59:47;8.10;99.90
2465;DHT22;1244;54.326;10.074;2024-03-02T08:02:12;8.10;99.90
2465;DHT22;1244;54.326;10.074;2024-03-02T08:04:38;8.10;99.90
2465;DHT22;1244;54.326;10.074;2024-03-02T08:07:04;8.20;99.90
2465;DHT22;1244;54.326;10.074;2024-03-02T08:09:30;8.20;99.90
2465;DHT22;1244;54.326;10.074;2024-03-02T08:11:55;8.20;99.90
2465;DHT22;1244;54.326;10.074;2024-03-02T08:14:23;8.30;99.90
2465;DHT22;1244;54.326;10.074;2024-03-02T08:16:48;8.40;99.90
2465;DHT22;1244;54.326;10.074;2024-03-02T08:19:14;8.30;99.90
2465;DHT22;1244;54.326;10.074;2024-03-02T08:21:39;8.40;99.90
2465;DHT22;1244;54.326;10.074;2024-03-02T08:24:05;8.40;99.90
2465;DHT22;1244;54.326;10.074;2024-03-02T08:26:31;8.50;99.90
2465;DHT22;1244;54.326;10.074;2024-03-02T08:29:00;8.40;99.90
2465;DHT22;1244;54.326;10.074;2024-03-02T08:31:27;8.40;99.90
2465;DHT22;1244;54.326;10.074;2024-03-02T08:33:53;8.40;99.90
2465;DHT22;1244;54.326;10.074;2024-03-02T08:36:19;8.40;99.90
2465;DHT22;1244;54.326;10.074;2024-03-02T08:38:45;8.40;99.90
2465;DHT22;1244;54.326;10.074;2024-03-02T08:41:10;8.40;99.90
2465;DHT22;1244;54.326;10.074;2024-03-02T08:43:38;8.50;99.90
2465;DHT22;1244;54.326;10.074;2024-03-02T08:46:04;8.50;99.90
2465;DHT22;1244;54.326;10.074;2024-03-02T08:48:29;8.50;99.90
2465;DHT22;1244;54.326;10.074;2024-03-02T08:50:55;8.60;99.90
2465;DHT22;1244;54.326;10.074;2024-03-02T08:53:20;8.70;99.90
2465;DHT22;1244;54.326;10.074;2024-03-02T08:55:46;8.70;99.90
2465;DHT22;1244;54.326;10.074;2024-03-02T08:58:12;8.80;99.90
2465;DHT22;1244;54.326;10.074;2024-03-02T09:00:38;8.80;99.90
2465;DHT22;1244;54.326;10.074;2024-03-02T09:03:03;9.00;99.90
2465;DHT22;1244;54.326;10.074;2024-03-02T09:05:29;9.20;99.90
2465;DHT22;1244;54.326;10.074;2024-03-02T09:07:55;9.20;99.90
2465;DHT22;1244;54.326;10.074;2024-03-02T09:10:20;9.20;99.90
2465;DHT22;1244;54.326;10.074;2024-03-02T09:12:46;9.40;99.90
2465;DHT22;1244;54.326;10.074;2024-03-02T09:15:11;9.50;99.90
2465;DHT22;1244;54.326;10.074;2024-03-02T09:17:37;9.70;99.90
2465;DHT22;1244;54.326;10.074;2024-03-02T09:20:03;9.90;99.90
2465;DHT22;1244;54.326;10.074;2024-03-02T09:22:29;10.00;99.90
2465;DHT22;1244;54.326;10.074;2024-03-02T09:24:55;10.00;99.90
2465;DHT22;1244;54.326;10.074;2024-03-02T09:27:21;9.90;99.90
2465;DHT22;1244;54.326;10.074;2024-03-02T09:29:47;9.90;99.90
2465;DHT22;1244;54.326;10.074;2024-03-02T09:32:13;10.00;99.90
2465;DHT22;1244;54.326;10.074;2024-03-02T09:34:39;9.80;99.90
2465;DHT22;1244;54.326;10.074;2024-03-02T09:37:06;9.80;99.90
2465;DHT22;1244;54.326;10.074;2024-03-02T09:39:31;9.80;99.90
2465;DHT22;1244;54.326;10.074;2024-03-02T09:41:58;9.70;99.90
2465;DHT22;1244;54.326;10.074;2024-03-02T09:44:24;9.80;99.90
2465;DHT22;1244;54.326;10.074;2024-03-02T09:46:50;9.80;99.90
2465;DHT22;1244;54.326;10.074;2024-03-02T09:49:16;9.90;99.90
2465;DHT22;1244;54.326;10.074;2024-03-02T09:51:47;10.00;99.90
2465;DHT22;1244;54.326;10.074;2024-03-02T09:54:12;10.00;99.90
2465;DHT22;1244;54.326;10.074;2024-03-02T09:56:39;10.20;99.90
2465;DHT22;1244;54.326;10.074;2024-03-02T09:59:04;10.30;99.90
2465;DHT22;1244;54.326;10.074;2024-03-02T10:01:30;10.50;99.90
2465;DHT22;1244;54.326;10.074;2024-03-02T10:03:59;10.60;99.90
2465;DHT22;1244;54.326;10.074;2024-03-02T10:06:27;10.70;99.90
2465;DHT22;1244;54.326;10.074;2024-03-02T10:08:53;10.90;99.90
2465;DHT22;1244;54.326;10.074;2024-03-02T10:11:26;11.00;99.90
2465;DHT22;1244;54.326;10.074;2024-03-02T10:16:34;11.40;99.90
2465;DHT22;1244;54.326;10.074;2024-03-02T10:19:21;11.60;99.90
2465;DHT22;1244;54.326;10.074;2024-03-02T10:21:48;12.10;99.90
2465;DHT22;1244;54.326;10.074;2024-03-02T10:24:15;12.50;99.90
2465;DHT22;1244;54.326;10.074;2024-03-02T10:26:40;12.90;99.90
2465;DHT22;1244;54.326;10.074;2024-03-02T10:29:08;13.00;99.90
2465;DHT22;1244;54.326;10.074;2024-03-02T10:31:34;12.90;99.90
2465;DHT22;1244;54.326;10.074;2024-03-02T10:34:00;12.90;99.90
2465;DHT22;1244;54.326;10.074;2024-03-02T10:36:28;13.10;99.90
2465;DHT22;1244;54.326;10.074;2024-03-02T10:38:53;13.10;99.90
2465;DHT22;1244;54.326;10.074;2024-03-02T10:41:24;13.20;99.90
2465;DHT22;1244;54.326;10.074;2024-03-02T10:43:52;12.90;99.90
2465;DHT22;1244;54.326;10.074;2024-03-02T10:46:21;13.20;99.90
2465;DHT22;1244;54.326;10.074;2024-03-02T10:48:48;13.50;99.90
2465;DHT22;1244;54.326;10.074;2024-03-02T10:51:14;13.30;99.90
2465;DHT22;1244;54.326;10.074;2024-03-02T10:53:40;13.30;99.90
2465;DHT22;1244;54.326;10.074;2024-03-02T10:56:07;13.30;99.90
2465;DHT22;1244;54.326;10.074;2024-03-02T10:58:34;13.80;99.90
2465;DHT22;1244;54.326;10.074;2024-03-02T11:01:03;13.90;99.90
2465;DHT22;1244;54.326;10.074;2024-03-02T11:03:35;14.30;99.90
2465;DHT22;1244;54.326;10.074;2024-03-02T11:06:00;14.20;99.90
2465;DHT22;1244;54.326;10.074;2024-03-02T11:08:31;14.00;99.90
2465;DHT22;1244;54.326;10.074;2024-03-02T11:11:03;13.90;99.90
2465;DHT22;1244;54.326;10.074;2024-03-02T11:13:34;13.70;99.90
2465;DHT22;1244;54.326;10.074;2024-03-02T11:16:08;13.70;99.90
2465;DHT22;1244;54.326;10.074;2024-03-02T11:18:35;13.80;99.90
2465;DHT22;1244;54.326;10.074;2024-03-02T11:21:02;13.90;99.90
2465;DHT22;1244;54.326;10.074;2024-03-02T11:23:32;14.00;99.90
2465;DHT22;1244;54.326;10.074;2024-03-02T11:26:20;14.30;99.90
2465;DHT22;1244;54.326;10.074;2024-03-02T11:28:46;14.40;99.90
2465;DHT22;1244;54.326;10.074;2024-03-02T11:31:11;14.40;99.90
2465;DHT22;1244;54.326;10.074;2024-03-02T11:33:37;14.30;99.90
2465;DHT22;1244;54.326;10.074;2024-03-02T11:36:03;14.40;99.90
2465;DHT22;1244;54.326;10.074;2024-03-02T11:38:31;14.60;99.90
2465;DHT22;1244;54.326;10.074;2024-03-02T11:40:59;14.60;99.90
2465;DHT22;1244;54.326;10.074;2024-03-02T11:43:27;14.60;99.90
2465;DHT22;1244;54.326;10.074;2024-03-02T11:46:04;15.10;99.90
2465;DHT22;1244;54.326;10.074;2024-03-02T11:48:33;14.90;99.90
2465;DHT22;1244;54.326;10.074;2024-03-02T11:51:00;14.70;99.90
2465;DHT22;1244;54.326;10.074;2024-03-02T11:53:27;15.00;99.90
2465;DHT22;1244;54.326;10.074;2024-03-02T11:55:58;14.90;99.90
2465;DHT22;1244;54.326;10.074;2024-03-02T11:58:24;15.00;99.90
2465;DHT22;1244;54.326;10.074;2024-03-02T12:00:53;15.20;99.90
2465;DHT22;1244;54.326;10.074;2024-03-02T12:03:22;15.30;99.90
2465;DHT22;1244;54.326;10.074;2024-03-02T12:05:54;14.80;99.90
2465;DHT22;1244;54.326;10.074;2024-03-02T12:08:20;15.10;99.90
2465;DHT22;1244;54.326;10.074;2024-03-02T12:10:57;15.00;99.90
2465;DHT22;1244;54.326;10.074;2024-03-02T12:13:23;15.30;99.90
2465;DHT22;1244;54.326;10.074;2024-03-02T12:15:53;14.70;99.90
2465;DHT22;1244;54.326;10.074;2024-03-02T12:18:20;14.70;99.90
2465;DHT22;1244;54.326;10.074;2024-03-02T12:20:46;14.70;99.90
2465;DHT22;1244;54.326;10.074;2024-03-02T12:23:13;14.40;99.90
2465;DHT22;1244;54.326;10.074;2024-03-02T12:25:39;14.30;99.90
2465;DHT22;1244;54.326;10.074;2024-03-02T12:28:05;14.00;99.90
2465;DHT22;1244;54.326;10.074;2024-03-02T12:30:34;13.40;99.90
2465;DHT22;1244;54.326;10.074;2024-03-02T12:33:00;13.50;99.90
2465;DHT22;1244;54.326;10.074;2024-03-02T12:35:26;13.20;99.90
2465;DHT22;1244;54.326;10.074;2024-03-02T12:37:53;12.90;99.90
2465;DHT22;1244;54.326;10.074;2024-03-02T12:40:20;12.80;99.90
2465;DHT22;1244;54.326;10.074;2024-03-02T12:42:47;12.60;99.90
2465;DHT22;1244;54.326;10.074;2024-03-02T12:45:14;12.80;99.90
2465;DHT22;1244;54.326;10.074;2024-03-02T12:47:41;12.80;99.90
2465;DHT22;1244;54.326;10.074;2024-03-02T12:50:08;12.90;99.90
2465;DHT22;1244;54.326;10.074;2024-03-02T12:52:34;12.70;99.90
2465;DHT22;1244;54.326;10.074;2024-03-02T12:55:00;12.70;99.90
2465;DHT22;1244;54.326;10.074;2024-03-02T12:57:29;12.70;99.90
2465;DHT22;1244;54.326;10.074;2024-03-02T13:00:03;12.50;99.90
2465;DHT22;1244;54.326;10.074;2024-03-02T13:02:36;12.60;99.90
2465;DHT22;1244;54.326;10.074;2024-03-02T13:05:02;12.50;99.90
2465;DHT22;1244;54.326;10.074;2024-03-02T13:07:28;12.40;99.90
2465;DHT22;1244;54.326;10.074;2024-03-02T13:09:54;12.50;99.90
2465;DHT22;1244;54.326;10.074;2024-03-02T13:12:20;12.50;99.90
2465;DHT22;1244;54.326;10.074;2024-03-02T13:14:50;12.60;99.90
2465;DHT22;1244;54.326;10.074;2024-03-02T13:17:17;12.60;99.90
2465;DHT22;1244;54.326;10.074;2024-03-02T13:19:43;12.70;99.90
2465;DHT22;1244;54.326;10.074;2024-03-02T13:22:09;12.50;99.90
2465;DHT22;1244;54.326;10.074;2024-03-02T13:24:34;12.60;99.90
2465;DHT22;1244;54.326;10.074;2024-03-02T13:27:00;12.70;99.90
2465;DHT22;1244;54.326;10.074;2024-03-02T13:29:26;12.60;99.90
2465;DHT22;1244;54.326;10.074;2024-03-02T13:31:51;12.50;99.90
2465;DHT22;1244;54.326;10.074;2024-03-02T13:34:17;12.60;99.90
2465;DHT22;1244;54.326;10.074;2024-03-02T13:36:42;12.60;99.90
2465;DHT22;1244;54.326;10.074;2024-03-02T13:39:07;12.50;99.90
2465;DHT22;1244;54.326;10.074;2024-03-02T13:41:36;12.50;99.90
2465;DHT22;1244;54.326;10.074;2024-03-02T13:44:01;12.50;99.90
2465;DHT22;1244;54.326;10.074;2024-03-02T13:46:27;12.50;99.90
2465;DHT22;1244;54.326;10.074;2024-03-02T13:48:53;12.40;99.90
2465;DHT22;1244;54.326;10.074;2024-03-02T13:51:19;12.50;99.90
2465;DHT22;1244;54.326;10.074;2024-03-02T13:53:44;12.60;99.90
2465;DHT22;1244;54.326;10.074;2024-03-02T13:56:10;12.60;99.90
2465;DHT22;1244;54.326;10.074;2024-03-02T13:58:35;12.50;99.90
2465;DHT22;1244;54.326;10.074;2024-03-02T14:01:01;12.50;99.90
2465;DHT22;1244;54.326;10.074;2024-03-02T14:03:29;12.50;99.90
2465;DHT22;1244;54.326;10.074;2024-03-02T14:05:55;12.50;99.90
2465;DHT22;1244;54.326;10.074;2024-03-02T14:08:20;12.50;99.90
2465;DHT22;1244;54.326;10.074;2024-03-02T14:10:46;12.50;99.90
2465;DHT22;1244;54.326;10.074;2024-03-02T14:13:11;12.50;99.90
2465;DHT22;1244;54.326;10.074;2024-03-02T14:15:37;12.60;99.90
2465;DHT22;1244;54.326;10.074;2024-03-02T14:18:05;12.60;99.90
2465;DHT22;1244;54.326;10.074;2024-03-02T14:20:30;12.80;99.90
2465;DHT22;1244;54.326;10.074;2024-03-02T14:22:56;12.90;99.90
2465;DHT22;1244;54.326;10.074;2024-03-02T14:25:21;13.00;99.90
2465;DHT22;1244;54.326;10.074;2024-03-02T14:27:46;13.30;99.90
2465;DHT22;1244;54.326;10.074;2024-03-02T14:30:12;13.40;99.90
2465;DHT22;1244;54.326;10.074;2024-03-02T14:32:38;13.40;99.90
2465;DHT22;1244;54.326;10.074;2024-03-02T14:35:03;13.40;99.90
2465;DHT22;1244;54.326;10.074;2024-03-02T14:37:29;13.30;99.90
2465;DHT22;1244;54.326;10.074;2024-03-02T14:39:54;13.20;99.90
2465;DHT22;1244;54.326;10.074;2024-03-02T14:42:20;13.00;99.90
2465;DHT22;1244;54.326;10.074;2024-03-02T14:44:46;13.00;99.90
2465;DHT22;1244;54.326;10.074;2024-03-02T14:47:11;12.90;99.90
2465;DHT22;1244;54.326;10.074;2024-03-02T14:49:37;12.70;99.90
2465;DHT22;1244;54.326;10.074;2024-03-02T14:52:05;12.90;99.90
2465;DHT22;1244;54.326;10.074;2024-03-02T14:54:31;13.10;99.90
2465;DHT22;1244;54.326;10.074;2024-03-02T14:56:56;13.10;99.90
2465;DHT22;1244;54.326;10.074;2024-03-02T14:59:22;13.10;99.90
2465;DHT22;1244;54.326;10.074;2024-03-02T15:01:47;13.00;99.90
2465;DHT22;1244;54.326;10.074;2024-03-02T15:04:14;13.10;99.90
2465;DHT22;1244;54.326;10.074;2024-03-02T15:06:42;13.10;99.90
2465;DHT22;1244;54.326;10.074;2024-03-02T15:09:07;13.10;99.90
2465;DHT22;1244;54.326;10.074;2024-03-02T15:11:33;13.20;99.90
2465;DHT22;1244;54.326;10.074;2024-03-02T15:13:59;13.10;99.90
2465;DHT22;1244;54.326;10.074;2024-03-02T15:16:24;13.00;99.90
2465;DHT22;1244;54.326;10.074;2024-03-02T15:18:50;12.90;99.90
2465;DHT22;1244;54.326;10.074;2024-03-02T15:21:15;12.80;99.90
2465;DHT22;1244;54.326;10.074;2024-03-02T15:23:40;12.80;99.90
2465;DHT22;1244;54.326;10.074;2024-03-02T15:26:06;12.80;99.90
2465;DHT22;1244;54.326;10.074;2024-03-02T15:28:32;12.80;99.90
2465;DHT22;1244;54.326;10.074;2024-03-02T15:30:57;12.70;99.90
2465;DHT22;1244;54.326;10.074;2024-03-02T15:33:23;12.60;99.90
2465;DHT22;1244;54.326;10.074;2024-03-02T15:35:54;12.60;99.90
2465;DHT22;1244;54.326;10.074;2024-03-02T15:38:20;12.60;99.90
2465;DHT22;1244;54.326;10.074;2024-03-02T15:40:45;12.50;99.90
2465;DHT22;1244;54.326;10.074;2024-03-02T15:43:10;12.60;99.90
2465;DHT22;1244;54.326;10.074;2024-03-02T15:45:36;12.60;99.90
2465;DHT22;1244;54.326;10.074;2024-03-02T15:48:01;12.40;99.90
2465;DHT22;1244;54.326;10.074;2024-03-02T15:50:27;12.30;99.90
2465;DHT22;1244;54.326;10.074;2024-03-02T15:52:52;12.40;99.90